createdAt,value
2017-08-12T00:00:14.873Z,100971.77
2017-08-12T00:02:49.694Z,100970.96
2017-08-12T00:05:24.527Z,100966.76
2017-08-12T00:07:59.303Z,100955.63
2017-08-12T00:10:34.140Z,100956.84
2017-08-12T00:13:08.897Z,100954.90
2017-08-12T00:15:43.597Z,100962.61
2017-08-12T00:18:18.476Z,100961.55
2017-08-12T00:20:53.179Z,100960.41
2017-08-12T00:23:27.921Z,100954.11
2017-08-12T00:26:03.759Z,100964.97
2017-08-12T00:28:38.307Z,100956.06
2017-08-12T00:31:13.183Z,100959.13
2017-08-12T00:33:47.909Z,100959.77
2017-08-12T00:36:23.699Z,100954.90
2017-08-12T00:38:58.490Z,100956.13
2017-08-12T00:41:34.180Z,100946.76
2017-08-12T00:44:08.482Z,100942.55
2017-08-12T00:46:43.560Z,100944.50
2017-08-12T00:49:18.404Z,100938.89
2017-08-12T00:51:54.003Z,100938.31
2017-08-12T00:54:28.780Z,100941.84
2017-08-12T00:57:03.462Z,100941.56
2017-08-12T00:59:37.820Z,100933.84
2017-08-12T01:02:12.663Z,100930.01
2017-08-12T01:04:47.304Z,100925.66
2017-08-12T01:07:22.567Z,100933.23
2017-08-12T01:09:57.329Z,100933.50
2017-08-12T01:12:32.022Z,100930.71
2017-08-12T01:15:06.702Z,100934.35
2017-08-12T01:17:41.406Z,100928.13
2017-08-12T01:20:16.140Z,100930.42
2017-08-12T01:22:50.887Z,100932.77
2017-08-12T01:25:25.691Z,100930.69
2017-08-12T01:28:00.452Z,100932.06
2017-08-12T01:30:35.079Z,100925.97
2017-08-12T01:33:09.775Z,100915.57
2017-08-12T01:35:44.488Z,100913.36
2017-08-12T01:38:19.331Z,100917.50
2017-08-12T01:40:54.095Z,100918.09
2017-08-12T01:43:28.782Z,100917.45
2017-08-12T01:46:03.598Z,100917.37
2017-08-12T01:48:38.415Z,100916.23
2017-08-12T01:51:13.202Z,100907.89
2017-08-12T01:53:48.027Z,100911.37
2017-08-12T01:56:22.735Z,100914.42
2017-08-12T01:58:57.483Z,100909.17
2017-08-12T02:01:32.315Z,100913.30
2017-08-12T02:04:07.111Z,100908.68
2017-08-12T02:06:41.852Z,100903.58
2017-08-12T02:09:16.764Z,100893.05
2017-08-12T02:11:51.868Z,100897.38
2017-08-12T02:14:26.383Z,100891.95
2017-08-12T02:17:02.087Z,100897.74
2017-08-12T02:19:36.700Z,100892.76
2017-08-12T02:22:11.459Z,100891.20
2017-08-12T02:24:46.187Z,100886.41
2017-08-12T02:27:21.019Z,100885.78
2017-08-12T02:29:56.815Z,100876.41
2017-08-12T02:32:31.441Z,100883.20
2017-08-12T02:35:06.247Z,100880.33
2017-08-12T02:37:41.163Z,100889.40
2017-08-12T02:40:15.705Z,100889.34
2017-08-12T02:42:51.683Z,100882.41
2017-08-12T02:45:26.263Z,100882.56
2017-08-12T02:48:01.060Z,100884.47
2017-08-12T02:50:36.840Z,100886.74
2017-08-12T02:53:11.416Z,100886.19
2017-08-12T02:55:46.136Z,100872.50
2017-08-12T02:58:21.859Z,100875.62
2017-08-12T03:00:56.507Z,100873.70
2017-08-12T03:03:31.279Z,100869.48
2017-08-12T03:06:06.040Z,100873.63
2017-08-12T03:08:41.999Z,100871.84
2017-08-12T03:11:16.801Z,100871.76
2017-08-12T03:13:51.535Z,100862.86
2017-08-12T03:16:26.299Z,100863.05
2017-08-12T03:19:01.039Z,100856.84
2017-08-12T03:21:35.760Z,100855.98
2017-08-12T03:24:10.523Z,100855.02
2017-08-12T03:26:45.294Z,100856.12
2017-08-12T03:29:21.023Z,100861.34
2017-08-12T03:31:55.695Z,100861.26
2017-08-12T03:34:30.439Z,100859.41
2017-08-12T03:37:05.088Z,100862.13
2017-08-12T03:39:39.728Z,100859.50
2017-08-12T03:42:14.492Z,100861.91
2017-08-12T03:44:49.328Z,100864.61
2017-08-12T03:47:24.067Z,100865.76
2017-08-12T03:49:58.691Z,100867.69
2017-08-12T03:52:33.295Z,100864.09
2017-08-12T03:55:08.119Z,100858.31
2017-08-12T03:57:42.751Z,100854.20
2017-08-12T04:00:17.289Z,100859.33
2017-08-12T04:02:51.911Z,100864.63
2017-08-12T04:05:26.636Z,100864.55
2017-08-12T04:08:01.842Z,100862.38
2017-08-12T04:10:36.399Z,100862.53
2017-08-12T04:13:11.023Z,100861.38
2017-08-12T04:15:46.691Z,100863.80
2017-08-12T04:18:21.379Z,100860.36
2017-08-12T04:20:56.180Z,100862.66
2017-08-12T04:23:30.587Z,100860.95
2017-08-12T04:26:05.240Z,100857.48
2017-08-12T04:28:39.967Z,100852.77
2017-08-12T04:31:14.643Z,100859.20
2017-08-12T04:33:49.347Z,100859.36
2017-08-12T04:36:24.108Z,100851.86
2017-08-12T04:38:58.631Z,100865.11
2017-08-12T04:41:33.182Z,100860.34
2017-08-12T04:44:07.872Z,100866.20
2017-08-12T04:46:42.615Z,100867.45
2017-08-12T04:49:17.419Z,100863.54
2017-08-12T04:51:52.067Z,100852.92
2017-08-12T04:54:26.708Z,100847.77
2017-08-12T04:57:01.275Z,100853.06
2017-08-12T04:59:36.139Z,100848.94
2017-08-12T05:02:10.819Z,100849.65
2017-08-12T05:04:45.395Z,100858.17
2017-08-12T05:07:20.172Z,100858.02
2017-08-12T05:09:54.752Z,100862.47
2017-08-12T05:12:30.519Z,100864.05
2017-08-12T05:15:05.259Z,100859.53
2017-08-12T05:17:40.136Z,100867.61
2017-08-12T05:20:15.910Z,100862.27
2017-08-12T05:22:50.540Z,100857.32
2017-08-12T05:25:25.276Z,100851.98
2017-08-12T05:27:59.891Z,100856.27
2017-08-12T05:30:34.475Z,100842.08
2017-08-12T05:33:09.129Z,100840.84
2017-08-12T05:35:43.782Z,100839.51
2017-08-12T05:38:19.090Z,100834.34
2017-08-12T05:40:54.039Z,100835.27
2017-08-12T05:43:28.888Z,100835.19
2017-08-12T05:46:03.495Z,100839.55
2017-08-12T05:48:38.367Z,100829.93
2017-08-12T05:51:13.199Z,100828.80
2017-08-12T05:53:48.067Z,100835.56
2017-08-12T05:56:22.683Z,100837.72
2017-08-12T05:58:57.459Z,100844.16
2017-08-12T06:01:32.219Z,100854.66
2017-08-12T06:04:06.839Z,100856.57
2017-08-12T06:06:41.755Z,100853.52
2017-08-12T06:09:16.471Z,100858.53
2017-08-12T06:11:51.231Z,100856.27
2017-08-12T06:14:25.964Z,100857.20
2017-08-12T06:17:00.583Z,100862.62
2017-08-12T06:19:36.179Z,100865.81
2017-08-12T06:22:10.994Z,100861.20
2017-08-12T06:24:45.724Z,100863.35
2017-08-12T06:27:21.364Z,100867.12
2017-08-12T06:29:56.023Z,100862.27
2017-08-12T06:32:30.692Z,100863.70
2017-08-12T06:35:05.500Z,100861.01
2017-08-12T06:37:40.036Z,100857.66
2017-08-12T06:40:14.727Z,100861.92
2017-08-12T06:42:49.344Z,100866.64
2017-08-12T06:45:23.963Z,100860.72
2017-08-12T06:47:58.575Z,100870.72
2017-08-12T06:50:32.979Z,100868.45
2017-08-12T06:53:07.627Z,100864.19
2017-08-12T06:55:42.295Z,100857.14
2017-08-12T06:58:18.164Z,100858.50
2017-08-12T07:00:52.751Z,100864.55
2017-08-12T07:03:27.659Z,100861.90
2017-08-12T07:06:02.244Z,100862.06
2017-08-12T07:08:37.096Z,100860.99
2017-08-12T07:11:11.766Z,100869.26
2017-08-12T07:13:46.391Z,100865.84
2017-08-12T07:16:21.980Z,100867.76
2017-08-12T07:18:56.644Z,100860.77
2017-08-12T07:21:31.259Z,100860.84
2017-08-12T07:24:06.094Z,100859.20
2017-08-12T07:26:41.881Z,100868.03
2017-08-12T07:29:16.462Z,100866.84
2017-08-12T07:31:51.276Z,100860.11
2017-08-12T07:34:25.931Z,100864.54
2017-08-12T07:37:00.523Z,100861.91
2017-08-12T07:39:36.315Z,100871.25
2017-08-12T07:42:10.835Z,100862.42
2017-08-12T07:44:45.359Z,100858.83
2017-08-12T07:47:20.166Z,100866.34
2017-08-12T07:49:56.035Z,100865.91
2017-08-12T07:52:30.752Z,100870.48
2017-08-12T07:55:05.271Z,100868.33
2017-08-12T07:57:39.884Z,100863.27
2017-08-12T08:00:14.196Z,100862.27
2017-08-12T08:02:49.259Z,100873.38
2017-08-12T08:05:23.880Z,100862.05
2017-08-12T08:07:58.695Z,100867.47
2017-08-12T08:10:33.487Z,100871.08
2017-08-12T08:13:08.104Z,100869.52
2017-08-12T08:15:42.816Z,100865.80
2017-08-12T08:18:17.403Z,100871.02
2017-08-12T08:20:53.228Z,100877.30
2017-08-12T08:23:27.848Z,100872.39
2017-08-12T08:26:02.456Z,100874.52
2017-08-12T08:28:37.176Z,100874.75
2017-08-12T08:31:11.896Z,100879.66
2017-08-12T08:33:46.623Z,100876.66
2017-08-12T08:36:21.328Z,100879.89
2017-08-12T08:38:56.279Z,100879.30
2017-08-12T08:41:30.853Z,100882.93
2017-08-12T08:44:05.822Z,100888.95
2017-08-12T08:46:40.422Z,100883.38
2017-08-12T08:49:14.891Z,100882.78
2017-08-12T08:51:49.439Z,100877.45
2017-08-12T08:54:23.956Z,100877.45
2017-08-12T08:56:58.700Z,100885.38
2017-08-12T08:59:34.508Z,100881.73
2017-08-12T09:02:09.256Z,100881.53
2017-08-12T09:04:43.767Z,100887.87
2017-08-12T09:07:18.760Z,100883.38
2017-08-12T09:09:54.047Z,100888.80
2017-08-12T09:12:28.456Z,100882.19
2017-08-12T09:15:04.060Z,100888.02
2017-08-12T09:17:39.105Z,100889.77
2017-08-12T09:20:14.911Z,100893.48
2017-08-12T09:22:49.535Z,100893.72
2017-08-12T09:25:24.250Z,100892.80
2017-08-12T09:27:59.097Z,100885.02
2017-08-12T09:30:33.732Z,100885.58
2017-08-12T09:33:08.428Z,100892.64
2017-08-12T09:35:43.224Z,100884.58
2017-08-12T09:38:17.899Z,100894.20
2017-08-12T09:40:52.715Z,100894.05
2017-08-12T09:43:27.375Z,100898.23
2017-08-12T09:46:02.107Z,100893.56
2017-08-12T09:48:36.763Z,100892.88
2017-08-12T09:51:11.499Z,100895.52
2017-08-12T09:53:46.373Z,100894.92
2017-08-12T09:56:21.211Z,100894.59
2017-08-12T09:58:55.780Z,100888.22
2017-08-12T10:01:30.339Z,100891.16
2017-08-12T10:04:05.606Z,100891.00
2017-08-12T10:06:40.646Z,100888.34
2017-08-12T10:09:15.415Z,100885.42
2017-08-12T10:11:50.231Z,100885.42
2017-08-12T10:14:24.955Z,100883.95
2017-08-12T10:16:59.782Z,100887.91
2017-08-12T10:19:34.483Z,100875.20
2017-08-12T10:22:09.284Z,100870.73
2017-08-12T10:24:44.067Z,100872.30
2017-08-12T10:27:18.771Z,100878.16
2017-08-12T10:29:53.539Z,100869.06
2017-08-12T10:32:28.336Z,100868.48
2017-08-12T10:35:03.060Z,100870.72
2017-08-12T10:37:38.147Z,100883.70
2017-08-12T10:40:13.431Z,100873.28
2017-08-12T10:42:48.267Z,100878.44
2017-08-12T10:45:23.020Z,100874.64
2017-08-12T10:47:58.804Z,100883.71
2017-08-12T10:50:33.495Z,100889.94
2017-08-12T10:53:08.232Z,100876.28
2017-08-12T10:55:42.827Z,100878.47
2017-08-12T10:58:17.718Z,100878.82
2017-08-12T11:00:53.506Z,100878.26
2017-08-12T11:03:28.200Z,100882.73
2017-08-12T11:06:02.915Z,100879.66
2017-08-12T11:08:37.727Z,100883.09
2017-08-12T11:11:12.456Z,100882.89
2017-08-12T11:13:47.168Z,100885.05
2017-08-12T11:16:21.879Z,100879.26
2017-08-12T11:18:56.645Z,100881.02
2017-08-12T11:21:31.367Z,100874.30
2017-08-12T11:24:06.139Z,100870.85
2017-08-12T11:26:40.710Z,100872.88
2017-08-12T11:29:15.307Z,100871.11
2017-08-12T11:31:49.952Z,100877.94
2017-08-12T11:34:24.838Z,100878.94
2017-08-12T11:36:59.463Z,100866.17
2017-08-12T11:39:33.928Z,100870.27
2017-08-12T11:42:09.005Z,100872.81
2017-08-12T11:44:43.704Z,100873.27
2017-08-12T11:47:18.425Z,100872.34
2017-08-12T11:49:53.183Z,100880.57
2017-08-12T11:52:27.699Z,100876.05
2017-08-12T11:55:03.441Z,100870.55
2017-08-12T11:57:39.159Z,100872.56
2017-08-12T12:00:14.016Z,100875.27
2017-08-12T12:02:48.644Z,100876.61
2017-08-12T12:05:24.299Z,100872.38
2017-08-12T12:07:59.943Z,100868.98
2017-08-12T12:10:34.556Z,100872.24
2017-08-12T12:13:09.174Z,100874.37
2017-08-12T12:15:43.911Z,100870.28
2017-08-12T12:18:18.576Z,100876.71
2017-08-12T12:20:54.239Z,100866.20
2017-08-12T12:23:28.788Z,100865.55
2017-08-12T12:26:04.370Z,100872.98
2017-08-12T12:28:39.004Z,100870.28
2017-08-12T12:31:13.763Z,100877.26
2017-08-12T12:33:48.641Z,100878.55
2017-08-12T12:36:24.307Z,100889.41
2017-08-12T12:38:58.831Z,100890.30
2017-08-12T12:41:33.723Z,100893.30
2017-08-12T12:44:07.957Z,100898.41
2017-08-12T12:46:42.750Z,100893.67
2017-08-12T12:49:17.423Z,100892.70
2017-08-12T12:51:51.955Z,100895.73
2017-08-12T12:54:26.752Z,100890.51
2017-08-12T12:57:01.367Z,100892.97
2017-08-12T12:59:37.025Z,100888.69
2017-08-12T13:02:11.963Z,100889.70
2017-08-12T13:04:46.371Z,100890.39
2017-08-12T13:07:21.358Z,100887.53
2017-08-12T13:09:56.203Z,100889.36
2017-08-12T13:12:31.039Z,100882.73
2017-08-12T13:15:05.807Z,100890.70
2017-08-12T13:17:41.488Z,100888.17
2017-08-12T13:20:16.263Z,100889.31
2017-08-12T13:22:51.083Z,100891.68
2017-08-12T13:25:25.948Z,100899.65
2017-08-12T13:28:00.817Z,100889.30
2017-08-12T13:30:35.535Z,100892.45
2017-08-12T13:33:10.390Z,100892.83
2017-08-12T13:35:45.223Z,100891.52
2017-08-12T13:38:19.927Z,100893.30
2017-08-12T13:40:54.552Z,100887.19
2017-08-12T13:43:29.432Z,100893.15
2017-08-12T13:46:04.051Z,100887.25
2017-08-12T13:48:38.895Z,100887.09
2017-08-12T13:51:13.638Z,100885.59
2017-08-12T13:53:48.327Z,100882.89
2017-08-12T13:56:23.072Z,100882.41
2017-08-12T13:58:57.779Z,100879.76
2017-08-12T14:01:32.340Z,100885.33
2017-08-12T14:04:07.131Z,100884.84
2017-08-12T14:06:41.556Z,100885.13
2017-08-12T14:09:16.596Z,100882.03
2017-08-12T14:11:51.267Z,100884.32
2017-08-12T14:14:25.880Z,100891.66
2017-08-12T14:17:00.673Z,100896.94
2017-08-12T14:19:35.306Z,100900.98
2017-08-12T14:22:10.096Z,100901.02
2017-08-12T14:24:44.883Z,100902.30
2017-08-12T14:27:19.709Z,100905.83
2017-08-12T14:29:55.419Z,100897.64
2017-08-12T14:32:30.438Z,100896.55
2017-08-12T14:35:04.810Z,100900.25
2017-08-12T14:37:39.847Z,100900.69
2017-08-12T14:40:14.607Z,100906.19
2017-08-12T14:42:49.311Z,100905.47
2017-08-12T14:45:24.111Z,100907.28
2017-08-12T14:48:00.004Z,100908.00
2017-08-12T14:50:34.719Z,100914.55
2017-08-12T14:53:09.428Z,100905.92
2017-08-12T14:55:44.088Z,100905.36
2017-08-12T14:58:18.750Z,100905.31
2017-08-12T15:00:53.364Z,100900.95
2017-08-12T15:03:28.164Z,100900.12
2017-08-12T15:06:02.866Z,100894.93
2017-08-12T15:08:38.678Z,100895.78
2017-08-12T15:11:13.291Z,100892.62
2017-08-12T15:13:48.011Z,100894.14
2017-08-12T15:16:22.496Z,100889.03
2017-08-12T15:18:57.295Z,100885.26
2017-08-12T15:21:31.699Z,100880.95
2017-08-12T15:24:07.518Z,100887.50
2017-08-12T15:26:42.339Z,100880.84
2017-08-12T15:29:17.084Z,100889.08
2017-08-12T15:31:51.691Z,100886.77
2017-08-12T15:34:26.343Z,100888.89
2017-08-12T15:37:01.076Z,100898.80
2017-08-12T15:39:36.797Z,100900.49
2017-08-12T15:42:11.510Z,100906.76
2017-08-12T15:44:46.126Z,100904.45
2017-08-12T15:47:20.767Z,100902.90
2017-08-12T15:49:56.431Z,100906.33
2017-08-12T15:52:31.147Z,100911.20
2017-08-12T15:55:05.894Z,100910.08
2017-08-12T15:57:40.707Z,100914.48
2017-08-12T16:00:15.356Z,100916.86
2017-08-12T16:02:50.087Z,100921.48
2017-08-12T16:05:24.831Z,100914.80
2017-08-12T16:07:59.839Z,100913.65
2017-08-12T16:10:35.187Z,100902.88
2017-08-12T16:13:10.953Z,100905.59
2017-08-12T16:15:46.623Z,100915.08
2017-08-12T16:18:21.390Z,100911.41
2017-08-12T16:20:56.050Z,100910.81
2017-08-12T16:23:31.695Z,100914.57
2017-08-12T16:26:06.436Z,100910.67
2017-08-12T16:28:42.100Z,100900.50
2017-08-12T16:31:16.715Z,100907.75
2017-08-12T16:33:51.580Z,100912.45
2017-08-12T16:36:26.363Z,100899.13
2017-08-12T16:39:01.907Z,100910.81
2017-08-12T16:41:37.011Z,100903.74
2017-08-12T16:44:11.503Z,100911.84
2017-08-12T16:46:46.194Z,100901.83
2017-08-12T16:49:20.844Z,100911.33
2017-08-12T16:51:55.372Z,100900.62
2017-08-12T16:54:30.471Z,100899.10
2017-08-12T16:57:05.620Z,100898.03
2017-08-12T16:59:40.355Z,100901.35
2017-08-12T17:02:21.095Z,100897.59
2017-08-12T17:04:55.547Z,100900.81
2017-08-12T17:07:30.312Z,100916.00
2017-08-12T17:10:05.045Z,100910.88
2017-08-12T17:12:40.777Z,100913.61
2017-08-12T17:15:15.500Z,100908.98
2017-08-12T17:17:50.028Z,100911.39
2017-08-12T17:20:24.675Z,100911.54
2017-08-12T17:22:59.392Z,100908.56
2017-08-12T17:25:34.136Z,100909.75
2017-08-12T17:28:08.648Z,100915.29
2017-08-12T17:30:43.411Z,100909.72
2017-08-12T17:33:18.081Z,100920.05
2017-08-12T17:35:52.840Z,100914.55
2017-08-12T17:38:27.920Z,100916.86
2017-08-12T17:41:03.195Z,100922.41
2017-08-12T17:43:37.920Z,100925.74
2017-08-12T17:46:12.795Z,100930.01
2017-08-12T17:48:47.650Z,100934.34
2017-08-12T17:51:22.278Z,100933.70
2017-08-12T17:53:57.079Z,100931.63
2017-08-12T17:56:31.875Z,100938.37
2017-08-12T17:59:06.615Z,100937.88
2017-08-12T18:01:41.587Z,100935.46
2017-08-12T18:04:16.270Z,100933.58
2017-08-12T18:06:50.995Z,100940.49
2017-08-12T18:09:25.805Z,100937.68
2017-08-12T18:12:00.623Z,100947.00
2017-08-12T18:14:35.393Z,100954.58
2017-08-12T18:17:10.260Z,100958.23
2017-08-12T18:19:44.930Z,100963.61
2017-08-12T18:22:19.659Z,100951.94
2017-08-12T18:24:54.519Z,100959.25
2017-08-12T18:27:29.365Z,100954.90
2017-08-12T18:30:03.976Z,100967.27
2017-08-12T18:32:38.940Z,100972.73
2017-08-12T18:35:13.685Z,100965.00
2017-08-12T18:37:48.507Z,100965.41
2017-08-12T18:40:23.232Z,100964.73
2017-08-12T18:42:57.992Z,100978.30
2017-08-12T18:45:32.660Z,100982.83
2017-08-12T18:48:07.284Z,100980.09
2017-08-12T18:50:43.039Z,100993.56
2017-08-12T18:53:17.895Z,100992.43
2017-08-12T18:55:52.670Z,100993.19
2017-08-12T18:58:28.583Z,101000.22
2017-08-12T19:01:03.375Z,101003.78
2017-08-12T19:03:38.026Z,101004.53
2017-08-12T19:06:12.855Z,101006.95
2017-08-12T19:08:47.630Z,101013.48
2017-08-12T19:11:22.367Z,101015.02
2017-08-12T19:13:58.560Z,101015.95
2017-08-12T19:16:33.901Z,101013.52
2017-08-12T19:19:08.458Z,101009.08
2017-08-12T19:21:43.297Z,101010.22
2017-08-12T19:24:19.099Z,101022.22
2017-08-12T19:26:53.976Z,101021.04
2017-08-12T19:29:28.706Z,101021.52
2017-08-12T19:32:04.608Z,101029.66
2017-08-12T19:34:40.479Z,101034.97
2017-08-12T19:37:15.267Z,101032.55
2017-08-12T19:39:50.046Z,101034.48
2017-08-12T19:42:24.827Z,101037.68
2017-08-12T19:44:59.600Z,101048.48
2017-08-12T19:47:34.437Z,101051.16
2017-08-12T19:50:10.279Z,101050.36
2017-08-12T19:52:46.236Z,101057.14
2017-08-12T19:55:21.168Z,101057.44
2017-08-12T19:57:56.818Z,101066.90
2017-08-12T20:00:31.567Z,101063.00
2017-08-12T20:03:06.387Z,101066.19
2017-08-12T20:05:42.155Z,101066.57
2017-08-12T20:08:16.731Z,101069.22
2017-08-12T20:10:51.503Z,101073.77
2017-08-12T20:13:26.317Z,101069.82
2017-08-12T20:16:01.011Z,101067.97
2017-08-12T20:18:35.772Z,101074.23
2017-08-12T20:21:10.149Z,101077.23
2017-08-12T20:23:45.239Z,101077.94
2017-08-12T20:26:20.011Z,101080.23
2017-08-12T20:28:54.711Z,101084.00
2017-08-12T20:31:29.518Z,101076.03
2017-08-12T20:34:04.343Z,101083.57
2017-08-12T20:36:39.971Z,101080.19
2017-08-12T20:39:14.876Z,101095.14
2017-08-12T20:41:49.727Z,101087.48
2017-08-12T20:44:24.517Z,101084.95
2017-08-12T20:46:59.331Z,101093.66
2017-08-12T20:49:34.038Z,101095.67
2017-08-12T20:52:08.991Z,101104.30
2017-08-12T20:54:43.694Z,101098.86
2017-08-12T20:57:18.448Z,101097.83
2017-08-12T20:59:53.188Z,101099.70
2017-08-12T21:02:27.860Z,101104.52
2017-08-12T21:05:02.720Z,101106.28
2017-08-12T21:07:38.559Z,101107.02
2017-08-12T21:10:13.299Z,101110.07
2017-08-12T21:12:47.915Z,101103.72
2017-08-12T21:15:22.327Z,101098.21
2017-08-12T21:17:57.405Z,101094.00
2017-08-12T21:20:32.048Z,101084.84
2017-08-12T21:23:07.684Z,101093.66
2017-08-12T21:25:42.407Z,101083.69
2017-08-12T21:28:19.176Z,101097.75
2017-08-12T21:30:53.799Z,101098.52
2017-08-12T21:33:28.556Z,101105.89
2017-08-12T21:36:03.356Z,101098.45
2017-08-12T21:38:38.141Z,101107.33
2017-08-12T21:41:12.821Z,101110.14
2017-08-12T21:43:47.584Z,101115.45
2017-08-12T21:46:22.471Z,101110.61
2017-08-12T21:48:57.243Z,101115.91
2017-08-12T21:51:33.096Z,101115.59
2017-08-12T21:54:08.652Z,101108.70
2017-08-12T21:56:43.356Z,101108.80
2017-08-12T21:59:18.140Z,101109.91
2017-08-12T22:01:52.915Z,101114.89
2017-08-12T22:04:27.752Z,101121.95
2017-08-12T22:07:02.552Z,101122.30
2017-08-12T22:09:37.276Z,101122.16
2017-08-12T22:12:11.899Z,101119.78
2017-08-12T22:14:46.663Z,101122.66
2017-08-12T22:17:22.407Z,101125.47
2017-08-12T22:19:57.167Z,101131.13
2017-08-12T22:22:31.870Z,101135.18
2017-08-12T22:25:06.628Z,101140.70
2017-08-12T22:27:41.319Z,101140.22
2017-08-12T22:30:17.113Z,101138.25
2017-08-12T22:32:51.727Z,101134.33
2017-08-12T22:35:26.476Z,101130.86
2017-08-12T22:38:01.216Z,101139.53
2017-08-12T22:40:35.936Z,101130.78
2017-08-12T22:43:10.857Z,101129.34
2017-08-12T22:45:45.606Z,101141.16
2017-08-12T22:48:20.462Z,101135.44
2017-08-12T22:50:55.175Z,101137.73
2017-08-12T22:53:30.195Z,101135.09
2017-08-12T22:56:04.739Z,101134.54
2017-08-12T22:58:39.263Z,101130.59
2017-08-12T23:01:13.983Z,101141.81
2017-08-12T23:03:48.663Z,101147.97
2017-08-12T23:06:23.316Z,101150.73
2017-08-12T23:08:58.190Z,101145.47
2017-08-12T23:11:32.815Z,101149.48
2017-08-12T23:14:07.523Z,101148.13
2017-08-12T23:16:42.187Z,101154.28
2017-08-12T23:19:16.812Z,101150.76
2017-08-12T23:21:51.356Z,101150.86
2017-08-12T23:24:26.067Z,101157.65
2017-08-12T23:27:00.762Z,101164.53
2017-08-12T23:29:35.448Z,101157.83
2017-08-12T23:32:10.170Z,101167.36
2017-08-12T23:34:44.680Z,101159.86
2017-08-12T23:37:19.291Z,101164.95
2017-08-12T23:39:53.812Z,101173.08
2017-08-12T23:42:28.435Z,101168.66
2017-08-12T23:45:03.067Z,101171.43
2017-08-12T23:47:37.907Z,101172.21
2017-08-12T23:50:12.627Z,101174.17
2017-08-12T23:52:47.487Z,101176.26
2017-08-12T23:55:22.136Z,101172.44
2017-08-12T23:57:56.933Z,101172.27
